Time;durP1;ratioP1;P1;durP2;ratioP2;P2;SDS_P1;SDS_P2;PMS_P1;PMS_P2;Temp;Humidity;BMP_temperature;BMP_pressure;BME280_temperature;BME280_humidity;BME280_pressure;Samples;Min_cycle;Max_cycle;Signal;HPM_P1;HPM_P2
2022/12/23 00:00:44;;;;;;;155.50;40.50;;;;;;;6.09;100.00;100254.84;4966434;28;20077;-80
2022/12/23 00:03:11;;;;;;;107.55;35.58;;;;;;;6.05;100.00;100253.94;4972471;28;20042;-80
2022/12/23 00:05:39;;;;;;;72.32;31.35;;;;;;;6.02;100.00;100253.91;4972229;28;20041;-80
2022/12/23 00:08:07;;;;;;;121.55;35.38;;;;;;;6.00;100.00;100258.25;4991073;28;20387;-80
2022/12/23 00:10:38;;;;;;;104.53;33.70;;;;;;;5.98;100.00;100250.38;4953857;28;20054;-80
2022/12/23 00:16:10;;;;;;;73.13;31.13;;;;;;;5.95;100.00;100252.03;4973401;28;20054;-79
2022/12/23 00:18:40;;;;;;;139.95;39.80;;;;;;;5.94;100.00;100255.53;4973982;28;20058;-79
2022/12/23 00:21:10;;;;;;;68.57;31.20;;;;;;;5.93;100.00;100256.38;4984900;28;20042;-79
2022/12/23 00:23:44;;;;;;;92.53;33.75;;;;;;;5.93;100.00;100256.38;4977117;28;20054;-79
2022/12/23 00:26:21;;;;;;;89.45;34.40;;;;;;;5.93;100.00;100253.75;4987734;28;20042;-79
2022/12/23 00:28:54;;;;;;;70.18;30.67;;;;;;;5.93;100.00;100253.75;4905787;28;20054;-79
2022/12/23 00:31:21;;;;;;;87.88;31.75;;;;;;;5.93;100.00;100253.75;4982434;28;20054;-79
2022/12/23 00:33:52;;;;;;;81.43;31.02;;;;;;;5.93;100.00;100249.38;4980942;28;20574;-79
2022/12/23 00:36:22;;;;;;;117.57;35.95;;;;;;;5.92;100.00;100252.00;4983942;28;20051;-79
2022/12/23 00:44:23;;;;;;;72.97;30.90;;;;;;;5.91;100.00;100252.84;4952048;28;20058;-79
2022/12/23 00:46:51;;;;;;;64.28;27.38;;;;;;;5.91;100.00;100247.63;4985840;28;20042;-79
2022/12/23 00:52:07;;;;;;;73.25;28.38;;;;;;;5.89;100.00;100257.19;4980883;28;20058;-79
2022/12/23 00:54:35;;;;;;;45.60;20.73;;;;;;;5.87;100.00;100257.16;4982052;28;20054;-79
2022/12/23 00:57:06;;;;;;;56.70;27.27;;;;;;;5.87;100.00;100262.41;4964322;28;20046;-79
2022/12/23 00:59:33;;;;;;;57.78;27.25;;;;;;;5.88;100.00;100269.41;4942096;28;20389;-79
2022/12/23 01:07:33;;;;;;;56.85;25.63;;;;;;;5.88;100.00;100263.25;4986794;28;20043;-79
2022/12/23 01:10:01;;;;;;;57.10;27.63;;;;;;;5.87;100.00;100257.16;4993604;28;20050;-79
2022/12/23 01:12:28;;;;;;;74.90;30.23;;;;;;;5.88;100.00;100260.66;5010267;28;20053;-79
2022/12/23 01:14:55;;;;;;;67.15;28.83;;;;;;;5.88;100.00;100260.66;4926293;28;20050;-79
2022/12/23 01:17:23;;;;;;;66.40;28.88;;;;;;;5.88;100.00;100258.03;5002572;28;20507;-80
2022/12/23 01:19:51;;;;;;;57.38;26.13;;;;;;;5.88;100.00;100276.34;4985728;28;20279;-79
2022/12/23 01:22:19;;;;;;;58.95;27.10;;;;;;;5.88;100.00;100278.94;4982638;28;20717;-79
2022/12/23 01:24:46;;;;;;;101.70;34.33;;;;;;;5.89;100.00;100291.19;4956150;28;20050;-79
2022/12/23 01:27:13;;;;;;;82.88;33.33;;;;;;;5.88;100.00;100294.63;4975089;28;20403;-79
2022/12/23 01:29:41;;;;;;;83.82;32.38;;;;;;;5.89;100.00;100301.66;4935572;28;20050;-79
2022/12/23 01:32:08;;;;;;;83.30;31.63;;;;;;;5.89;100.00;100302.50;4999889;28;20050;-79
2022/12/23 01:34:35;;;;;;;64.63;28.88;;;;;;;5.89;100.00;100312.09;4957081;28;20050;-79
2022/12/23 01:37:04;;;;;;;116.93;35.22;;;;;;;5.91;100.00;100307.78;4989188;28;20043;-79
2022/12/23 01:39:32;;;;;;;88.97;34.00;;;;;;;5.92;100.00;100312.16;4991526;28;20399;-79
2022/12/23 01:44:54;;;;;;;111.50;36.00;;;;;;;5.91;100.00;100300.78;4987476;28;20077;-79
2022/12/23 01:47:24;;;;;;;83.95;33.97;;;;;;;5.93;100.00;100298.22;4954147;28;20050;-79
2022/12/23 01:49:56;;;;;;;71.53;30.23;;;;;;;5.94;100.00;100298.22;4981581;28;20042;-79
2022/12/23 01:52:24;;;;;;;84.43;32.97;;;;;;;5.94;100.00;100300.84;4990253;28;20058;-79
2022/12/23 01:54:53;;;;;;;75.25;31.60;;;;;;;5.95;100.00;100312.19;4988131;28;20050;-78
2022/12/23 01:57:20;;;;;;;83.50;33.70;;;;;;;5.95;100.00;100310.47;4975273;28;20093;-79
2022/12/23 02:05:22;;;;;;;102.03;34.03;;;;;;;5.94;100.00;100305.22;4992023;28;20076;-80
2022/12/23 02:11:07;;;;;;;76.28;32.90;;;;;;;5.91;100.00;100320.84;5008787;28;20047;-79
2022/12/23 02:16:43;;;;;;;193.05;40.17;;;;;;;5.90;100.00;100321.69;4976518;28;20057;-80
2022/12/23 02:19:21;;;;;;;90.78;32.35;;;;;;;5.86;100.00;100319.06;4988913;28;20057;-78
2022/12/23 02:22:13;;;;;;;91.38;33.85;;;;;;;5.89;100.00;100330.41;4986448;28;20046;-80
2022/12/23 02:25:06;;;;;;;112.90;36.95;;;;;;;5.88;100.00;100336.47;4988142;28;20043;-79
2022/12/23 02:27:42;;;;;;;108.00;34.78;;;;;;;5.88;100.00;100353.06;4987479;28;20058;-79
2022/12/23 02:30:19;;;;;;;153.73;39.83;;;;;;;5.89;100.00;100344.34;4990563;28;20053;-78
2022/12/23 02:33:13;;;;;;;137.13;40.03;;;;;;;5.88;100.00;100346.94;4943423;28;20077;-80
2022/12/23 02:35:59;;;;;;;154.88;40.63;;;;;;;5.88;100.00;100347.84;4987968;28;20049;-78
2022/12/23 02:38:44;;;;;;;155.82;39.53;;;;;;;5.85;100.00;100353.03;4990616;28;20034;-78
2022/12/23 02:41:25;;;;;;;142.80;40.85;;;;;;;5.86;100.00;100352.19;4983785;28;20047;-78
2022/12/23 02:44:11;;;;;;;154.75;41.20;;;;;;;5.87;100.00;100361.75;4987447;28;20448;-79
2022/12/23 02:46:50;;;;;;;123.95;37.15;;;;;;;5.88;100.00;100357.41;4987708;28;20054;-79
2022/12/23 02:49:28;;;;;;;97.30;36.10;;;;;;;5.89;100.00;100356.56;4940925;28;20061;-79
2022/12/23 02:52:01;;;;;;;123.63;39.08;;;;;;;5.88;100.00;100357.41;4986457;28;20050;-79
2022/12/23 02:54:34;;;;;;;119.13;36.97;;;;;;;5.89;100.00;100356.56;4990100;28;20046;-78
2022/12/23 02:57:08;;;;;;;168.63;41.63;;;;;;;5.88;100.00;100363.53;5003749;28;20049;-78
2022/12/23 02:59:41;;;;;;;179.73;42.53;;;;;;;5.89;100.00;100369.63;4971015;28;20049;-79
2022/12/23 03:02:09;;;;;;;115.85;36.55;;;;;;;5.90;100.00;100374.00;4990961;28;20053;-78
2022/12/23 03:04:37;;;;;;;115.65;37.58;;;;;;;5.91;100.00;100389.72;4935112;28;20054;-78
2022/12/23 03:07:08;;;;;;;168.68;42.53;;;;;;;5.91;100.00;100378.38;4972905;28;20046;-79
2022/12/23 03:09:50;;;;;;;181.77;43.03;;;;;;;5.91;100.00;100375.75;4995632;28;20037;-78
2022/12/23 03:12:47;;;;;;;145.82;40.72;;;;;;;5.92;100.00;100369.69;5003376;28;20053;-79
2022/12/23 03:15:37;;;;;;;179.52;44.47;;;;;;;5.92;100.00;100383.63;5008783;28;20037;-78
2022/12/23 03:18:40;;;;;;;186.13;44.83;;;;;;;5.92;100.00;100382.78;4994151;28;20050;-78
2022/12/23 03:21:11;;;;;;;195.68;43.25;;;;;;;5.90;100.00;100385.34;4990159;28;20491;-79
2022/12/23 03:23:44;;;;;;;184.95;44.80;;;;;;;5.89;100.00;100390.56;4987287;28;20054;-79
2022/12/23 03:26:22;;;;;;;120.78;39.70;;;;;;;5.88;100.00;100399.25;4988167;28;20472;-79
2022/12/23 03:29:15;;;;;;;129.98;38.67;;;;;;;5.89;100.00;100396.66;4980617;28;20050;-79
2022/12/23 03:31:45;;;;;;;159.52;40.72;;;;;;;5.90;100.00;100415.84;4979011;28;20838;-78
2022/12/23 03:34:21;;;;;;;174.43;43.05;;;;;;;5.89;100.00;100414.09;4944463;28;20061;-80
2022/12/23 03:36:57;;;;;;;141.45;39.40;;;;;;;5.89;100.00;100419.31;4980717;28;20749;-79
2022/12/23 03:39:40;;;;;;;175.75;41.97;;;;;;;5.87;100.00;100419.28;4986655;28;20058;-78
2022/12/23 03:42:25;;;;;;;169.77;41.45;;;;;;;5.84;100.00;100414.91;4990097;28;20401;-80
2022/12/23 03:44:57;;;;;;;159.02;39.35;;;;;;;5.84;100.00;100416.63;4970652;28;20054;-78
2022/12/23 03:47:55;;;;;;;191.68;41.08;;;;;;;5.82;100.00;100423.56;4971582;28;20042;-78
2022/12/23 03:50:24;;;;;;;169.73;39.63;;;;;;;5.82;100.00;100416.63;4954282;28;20049;-78
2022/12/23 03:52:59;;;;;;;119.50;35.25;;;;;;;5.82;100.00;100423.56;4986799;28;20073;-78
2022/12/23 03:55:32;;;;;;;190.35;39.20;;;;;;;5.83;100.00;100423.59;4988270;28;20387;-78
2022/12/23 03:58:13;;;;;;;157.90;39.45;;;;;;;5.82;100.00;100421.84;4970568;28;20504;-79
2022/12/23 04:00:56;;;;;;;152.15;36.72;;;;;;;5.84;100.00;100434.91;4987486;28;20042;-79
2022/12/23 04:03:50;;;;;;;184.68;40.10;;;;;;;5.82;100.00;100421.84;4988536;28;20049;-79
2022/12/23 04:06:20;;;;;;;155.52;38.92;;;;;;;5.83;100.00;100427.94;4953256;28;20059;-79
2022/12/23 04:08:48;;;;;;;153.00;38.45;;;;;;;5.83;100.00;100425.34;4985455;28;20058;-79
2022/12/23 04:11:17;;;;;;;136.52;35.60;;;;;;;5.82;100.00;100429.69;4990297;28;20065;-78
2022/12/23 04:13:47;;;;;;;114.70;32.28;;;;;;;5.82;100.00;100432.31;4985396;28;20057;-78
2022/12/23 04:16:14;;;;;;;133.10;34.15;;;;;;;5.83;100.00;100430.56;4989501;28;20058;-78
2022/12/23 04:18:42;;;;;;;129.05;33.70;;;;;;;5.83;100.00;100439.28;4986112;28;20042;-78
2022/12/23 04:21:09;;;;;;;132.55;32.75;;;;;;;5.84;100.00;100443.66;4955499;28;20042;-78
2022/12/23 04:23:36;;;;;;;129.50;32.50;;;;;;;5.84;100.00;100448.00;5011547;28;20047;-78
2022/12/23 04:26:04;;;;;;;112.80;31.27;;;;;;;5.83;100.00;100449.75;4987237;28;20061;-78
2022/12/23 04:28:31;;;;;;;118.93;31.60;;;;;;;5.84;100.00;100454.13;4985598;28;20062;-78
2022/12/23 04:30:58;;;;;;;113.82;31.02;;;;;;;5.84;100.00;100450.63;4986411;28;20047;-78
2022/12/23 04:33:26;;;;;;;114.10;29.08;;;;;;;5.83;100.00;100460.19;4971897;28;20053;-79
2022/12/23 04:35:53;;;;;;;132.20;30.80;;;;;;;5.82;100.00;100453.22;4984982;28;20056;-78
2022/12/23 04:38:20;;;;;;;108.95;28.50;;;;;;;5.83;100.00;100448.88;4959596;28;20373;-80
2022/12/23 04:40:48;;;;;;;100.07;28.10;;;;;;;5.81;100.00;100445.34;4985734;28;20042;-79
2022/12/23 04:43:16;;;;;;;115.05;28.70;;;;;;;5.81;100.00;100454.06;4976742;28;20420;-80
2022/12/23 04:45:48;;;;;;;114.82;27.70;;;;;;;5.78;100.00;100453.13;4990324;28;20058;-80
2022/12/23 04:48:16;;;;;;;102.93;26.05;;;;;;;5.76;100.00;100458.34;4993630;28;20058;-79
2022/12/23 04:50:44;;;;;;;81.75;24.65;;;;;;;5.72;100.00;100448.69;4990570;28;20507;-80
2022/12/23 04:53:11;;;;;;;114.25;28.75;;;;;;;5.70;100.00;100445.16;4958511;28;20047;-79
2022/12/23 04:55:39;;;;;;;84.82;24.98;;;;;;;5.69;100.00;100440.81;4974766;28;20061;-80
2022/12/23 04:58:06;;;;;;;78.90;24.08;;;;;;;5.66;100.00;100441.63;4991880;28;20066;-80
2022/12/23 05:00:34;;;;;;;76.93;23.42;;;;;;;5.65;100.00;100444.19;4975599;28;20054;-80
2022/12/23 05:03:06;;;;;;;116.80;26.77;;;;;;;5.63;100.00;100432.84;4950290;28;20046;-79
2022/12/23 05:05:33;;;;;;;179.52;30.75;;;;;;;5.61;100.00;100437.16;4960163;28;20053;-79
2022/12/23 05:08:03;;;;;;;89.85;27.67;;;;;;;5.57;100.00;100451.03;4964329;28;20060;-80
2022/12/23 05:10:31;;;;;;;92.93;25.93;;;;;;;5.54;100.00;100456.22;4980557;28;20053;-79
2022/12/23 05:12:58;;;;;;;118.18;27.20;;;;;;;5.52;100.00;100455.31;4986916;28;20301;-79
2022/12/23 05:15:26;;;;;;;96.15;25.13;;;;;;;5.51;100.00;100469.25;4974926;28;20050;-79
2022/12/23 05:17:53;;;;;;;115.03;27.38;;;;;;;5.50;100.00;100457.00;4991541;28;20054;-79
2022/12/23 05:20:21;;;;;;;109.25;26.85;;;;;;;5.48;100.00;100467.44;4989115;28;20425;-79
2022/12/23 05:22:48;;;;;;;99.35;24.17;;;;;;;5.47;100.00;100469.19;4966355;28;20053;-80
2022/12/23 05:25:15;;;;;;;87.72;23.95;;;;;;;5.46;100.00;100472.66;4927924;28;20047;-79
2022/12/23 05:27:43;;;;;;;68.85;22.17;;;;;;;5.46;100.00;100469.13;4991167;28;20050;-79
2022/12/23 05:30:11;;;;;;;124.05;25.92;;;;;;;5.44;100.00;100470.84;4972316;28;20073;-79
2022/12/23 05:32:40;;;;;;;106.03;24.38;;;;;;;5.44;100.00;100470.84;4989394;28;20054;-78
2022/12/23 05:35:08;;;;;;;111.88;25.00;;;;;;;5.42;100.00;100478.66;4985666;28;20048;-79
2022/12/23 05:37:36;;;;;;;114.85;25.40;;;;;;;5.42;100.00;100477.78;4975166;28;20046;-79
2022/12/23 05:40:06;;;;;;;129.07;27.08;;;;;;;5.39;100.00;100473.41;4956689;28;20038;-79
2022/12/23 05:42:33;;;;;;;101.53;23.50;;;;;;;5.39;100.00;100467.31;4974571;28;20050;-78
2022/12/23 05:45:01;;;;;;;79.03;22.08;;;;;;;5.39;100.00;100460.34;4991649;28;20042;-79
2022/12/23 05:47:28;;;;;;;57.80;20.20;;;;;;;5.40;100.00;100466.44;4986550;28;20089;-79
2022/12/23 05:49:55;;;;;;;75.68;22.27;;;;;;;5.39;100.00;100462.94;4995647;28;20048;-78
2022/12/23 05:52:26;;;;;;;77.45;21.90;;;;;;;5.39;100.00;100468.16;4987301;28;20041;-79
2022/12/23 05:54:53;;;;;;;74.78;21.38;;;;;;;5.37;100.00;100466.34;4937355;28;20042;-79
2022/12/23 05:57:21;;;;;;;70.18;21.13;;;;;;;5.36;100.00;100465.50;4978676;28;20524;-78
2022/12/23 05:59:48;;;;;;;86.32;22.95;;;;;;;5.34;100.00;100469.81;5002290;28;20045;-78
2022/12/23 06:02:16;;;;;;;66.85;21.40;;;;;;;5.32;100.00;100473.25;5005025;28;20395;-79
2022/12/23 06:04:44;;;;;;;83.60;22.25;;;;;;;5.27;100.00;100471.44;4981257;28;20042;-78
2022/12/23 06:07:12;;;;;;;84.60;22.92;;;;;;;5.24;100.00;100489.66;4989671;28;20068;-78
2022/12/23 06:09:40;;;;;;;94.53;23.38;;;;;;;5.19;100.00;100500.88;4953863;28;20046;-79
2022/12/23 06:12:07;;;;;;;92.47;23.00;;;;;;;5.14;100.00;100508.63;4953040;28;20042;-79
2022/12/23 06:14:34;;;;;;;82.57;21.60;;;;;;;5.10;100.00;100504.16;4986531;28;20051;-79
2022/12/23 06:17:02;;;;;;;91.07;22.60;;;;;;;5.10;100.00;100493.72;4972341;28;20404;-79
2022/12/23 06:19:30;;;;;;;80.68;22.15;;;;;;;5.10;100.00;100495.47;4972222;28;20050;-80
2022/12/23 06:21:57;;;;;;;121.13;25.40;;;;;;;5.07;100.00;100502.41;4989595;28;20042;-80
2022/12/23 06:24:24;;;;;;;82.55;22.85;;;;;;;5.06;100.00;100504.97;4965642;28;20051;-79
2022/12/23 06:26:52;;;;;;;130.73;26.00;;;;;;;5.04;100.00;100504.06;4952936;28;20045;-80
2022/12/23 06:29:24;;;;;;;130.95;26.92;;;;;;;5.02;100.00;100500.53;4975624;28;20054;-79
2022/12/23 06:31:51;;;;;;;69.63;22.05;;;;;;;5.00;100.00;100494.41;4992176;28;20045;-80
2022/12/23 06:34:18;;;;;;;83.80;22.88;;;;;;;4.96;100.00;100498.69;4987717;28;20077;-79
2022/12/23 06:36:46;;;;;;;127.55;25.63;;;;;;;4.93;100.00;100500.34;4974308;28;20054;-79
2022/12/23 06:39:13;;;;;;;125.53;25.77;;;;;;;4.91;100.00;100504.66;4955585;28;20046;-80
2022/12/23 06:41:40;;;;;;;63.28;20.75;;;;;;;4.88;100.00;100506.38;4953359;28;20050;-80
2022/12/23 06:44:08;;;;;;;67.55;19.80;;;;;;;4.87;100.00;100503.72;4968005;28;20050;-78
2022/12/23 06:46:38;;;;;;;121.88;23.10;;;;;;;4.86;100.00;100525.47;4986795;28;20609;-79
2022/12/23 06:49:06;;;;;;;214.38;27.45;;;;;;;4.83;100.00;100512.34;4956338;28;20529;-79
2022/12/23 06:51:40;;;;;;;319.30;29.90;;;;;;;4.77;100.00;100530.50;4973072;28;20050;-81
2022/12/23 06:54:12;;;;;;;317.58;31.42;;;;;;;4.74;100.00;100528.66;4984517;28;20088;-79
2022/12/23 06:56:40;;;;;;;354.98;28.52;;;;;;;4.70;100.00;100537.28;4965439;28;20046;-80
2022/12/23 06:59:07;;;;;;;273.73;27.08;;;;;;;4.69;100.00;100540.75;4968586;28;20050;-79
2022/12/23 07:01:34;;;;;;;341.40;30.42;;;;;;;4.67;100.00;100538.13;4964745;28;20043;-79
2022/12/23 07:04:02;;;;;;;298.38;29.55;;;;;;;4.66;100.00;100548.50;4963210;28;20047;-83
2022/12/23 07:06:29;;;;;;;321.52;28.90;;;;;;;4.64;100.00;100558.03;4977108;28;20042;-79
2022/12/23 07:08:57;;;;;;;330.40;30.92;;;;;;;4.63;100.00;100558.88;4989151;28;20720;-79
2022/12/23 07:11:24;;;;;;;292.65;28.70;;;;;;;4.61;100.00;100566.69;4969844;28;20050;-79
2022/12/23 07:13:52;;;;;;;237.98;23.90;;;;;;;4.60;100.00;100577.97;4957669;28;20045;-79
2022/12/23 07:16:19;;;;;;;284.40;29.60;;;;;;;4.60;100.00;100577.97;4985032;28;20052;-79
2022/12/23 07:18:47;;;;;;;188.27;25.13;;;;;;;4.62;100.00;100588.44;4983778;28;20050;-79
2022/12/23 07:21:14;;;;;;;298.27;31.58;;;;;;;4.63;100.00;100587.59;4944768;28;20062;-79
2022/12/23 07:23:53;;;;;;;81.07;21.42;;;;;;;4.66;100.00;100593.75;4959382;28;20557;-79
2022/12/23 07:26:20;;;;;;;222.15;31.75;;;;;;;4.70;100.00;100592.09;4992110;28;20046;-79
2022/12/23 07:28:48;;;;;;;124.47;25.08;;;;;;;4.74;100.00;100590.44;4948191;28;20047;-79
2022/12/23 07:31:15;;;;;;;172.30;29.95;;;;;;;4.76;100.00;100589.63;4972392;28;20049;-79
2022/12/23 07:33:43;;;;;;;121.28;26.77;;;;;;;4.80;100.00;100585.34;4979691;28;21187;-79
2022/12/23 07:36:11;;;;;;;164.18;30.38;;;;;;;4.83;100.00;100591.53;4964329;28;20046;-79
2022/12/23 07:38:38;;;;;;;108.10;26.70;;;;;;;4.85;100.00;100596.78;4970154;28;20050;-79
2022/12/23 07:41:05;;;;;;;115.43;26.45;;;;;;;4.87;100.00;100584.66;4996738;28;20041;-79
2022/12/23 07:43:34;;;;;;;137.60;29.30;;;;;;;4.89;100.00;100590.78;4928742;28;20420;-78
2022/12/23 07:46:07;;;;;;;133.43;27.92;;;;;;;4.92;100.00;100585.66;4946895;28;20051;-79
2022/12/23 07:48:35;;;;;;;112.50;28.27;;;;;;;4.95;100.00;100597.88;4953353;28;20051;-80
2022/12/23 07:51:03;;;;;;;145.90;29.85;;;;;;;4.96;100.00;100604.88;4945676;28;20412;-79
2022/12/23 07:53:30;;;;;;;139.02;29.60;;;;;;;4.96;100.00;100597.91;4947195;28;20050;-79
2022/12/23 07:55:58;;;;;;;148.25;29.80;;;;;;;4.98;100.00;100604.06;4967061;28;20078;-79
2022/12/23 07:58:25;;;;;;;85.63;26.10;;;;;;;5.02;100.00;100607.63;4934458;28;20524;-79
2022/12/23 08:01:01;;;;;;;107.55;27.67;;;;;;;5.03;100.00;100606.78;4940954;29;20516;-79
2022/12/23 08:03:28;;;;;;;146.23;31.90;;;;;;;5.04;100.00;100609.41;4951917;28;20066;-80
2022/12/23 08:06:08;;;;;;;130.27;30.25;;;;;;;5.05;100.00;100585.06;4949240;28;20054;-79
2022/12/23 08:08:37;;;;;;;112.57;28.52;;;;;;;5.06;100.00;100588.53;4939350;29;20042;-79
2022/12/23 08:11:07;;;;;;;110.95;27.33;;;;;;;5.06;100.00;100597.25;4960178;28;20058;-79
2022/12/23 08:13:36;;;;;;;113.20;26.70;;;;;;;5.07;100.00;100595.53;4936894;28;20063;-79
2022/12/23 08:16:05;;;;;;;83.35;23.60;;;;;;;5.06;100.00;100594.63;4934882;28;20063;-79
2022/12/23 08:18:36;;;;;;;102.72;25.42;;;;;;;5.07;100.00;100595.53;4933917;29;20043;-79
2022/12/23 08:21:07;;;;;;;82.75;22.63;;;;;;;5.05;100.00;100603.34;4931708;28;20047;-79
2022/12/23 08:23:34;;;;;;;135.38;24.80;;;;;;;5.02;100.00;100603.25;4942582;28;20058;-80
2022/12/23 08:26:10;;;;;;;111.20;24.80;;;;;;;5.00;100.00;100607.56;4950334;28;20299;-80
2022/12/23 08:28:40;;;;;;;118.20;22.77;;;;;;;4.97;100.00;100597.09;4967941;28;20072;-80
2022/12/23 08:31:16;;;;;;;238.85;27.17;;;;;;;4.96;100.00;100597.91;4916023;28;20654;-80
2022/12/23 08:33:48;;;;;;;63.65;19.25;;;;;;;4.93;100.00;100587.38;4949755;28;20405;-80
2022/12/23 08:36:18;;;;;;;243.73;29.40;;;;;;;4.94;100.00;100575.25;4959074;28;20047;-80
2022/12/23 08:38:52;;;;;;;138.23;23.60;;;;;;;4.90;100.00;100576.91;4942720;28;20062;-80
2022/12/23 08:41:25;;;;;;;168.13;26.45;;;;;;;4.89;100.00;100565.53;4966939;28;20035;-79
2022/12/23 08:43:53;;;;;;;90.82;20.65;;;;;;;4.87;100.00;100561.16;4932966;28;20440;-80
2022/12/23 08:46:21;;;;;;;177.55;27.52;;;;;;;4.87;100.00;100576.81;4952966;28;20042;-80
2022/12/23 08:48:49;;;;;;;221.65;27.95;;;;;;;4.85;100.00;100571.56;4913743;28;20050;-79
2022/12/23 08:51:18;;;;;;;169.30;23.95;;;;;;;4.81;100.00;100577.56;4953665;28;20055;-79
2022/12/23 08:53:47;;;;;;;96.82;22.58;;;;;;;4.77;100.00;100577.47;4913437;28;20054;-79
2022/12/23 08:56:20;;;;;;;92.32;22.33;;;;;;;4.74;100.00;100580.00;4931586;28;20544;-80
2022/12/23 08:58:51;;;;;;;123.55;25.65;;;;;;;4.74;100.00;100575.66;4972407;28;20058;-81
2022/12/23 09:01:22;;;;;;;242.65;31.95;;;;;;;4.76;100.00;100573.97;4917862;28;20070;-79
2022/12/23 09:03:50;;;;;;;61.53;20.38;;;;;;;4.81;100.00;100571.47;4929761;28;20051;-79
2022/12/23 09:06:23;;;;;;;53.50;19.50;;;;;;;4.85;100.00;100570.69;4958908;28;20059;-78
2022/12/23 09:08:57;;;;;;;56.78;19.98;;;;;;;4.91;100.00;100567.31;4948812;28;20043;-78
2022/12/23 09:11:27;;;;;;;54.22;19.13;;;;;;;4.95;100.00;100569.16;4952632;28;20055;-79
2022/12/23 09:13:59;;;;;;;41.60;17.13;;;;;;;4.96;100.00;100574.41;4953322;28;20054;-79
2022/12/23 09:16:27;;;;;;;53.03;18.00;;;;;;;4.98;100.00;100570.09;4897753;28;20063;-78
2022/12/23 09:18:55;;;;;;;370.83;40.38;;;;;;;4.99;100.00;100573.59;4952837;28;20055;-79
2022/12/23 09:21:23;;;;;;;657.08;63.65;;;;;;;4.97;100.00;100577.91;4963225;28;20101;-80
2022/12/23 09:23:51;;;;;;;575.35;50.25;;;;;;;4.95;100.00;100577.84;4928873;28;20047;-80
2022/12/23 09:26:24;;;;;;;47.38;15.00;;;;;;;4.92;100.00;100584.78;4950776;28;20055;-80
2022/12/23 09:28:53;;;;;;;223.68;26.08;;;;;;;4.90;100.00;100584.72;4945826;28;20058;-80
2022/12/23 09:31:21;;;;;;;37.38;13.65;;;;;;;4.87;100.00;100587.25;4909335;28;20043;-79
2022/12/23 09:33:51;;;;;;;31.98;13.80;;;;;;;4.87;100.00;100584.66;4934780;28;20039;-79
2022/12/23 09:36:20;;;;;;;39.75;15.32;;;;;;;4.91;100.00;100570.81;4960091;28;20055;-79
2022/12/23 09:38:53;;;;;;;44.85;15.73;;;;;;;4.95;100.00;100571.75;4940189;28;20087;-79
2022/12/23 09:41:51;;;;;;;36.38;15.13;;;;;;;5.00;100.00;100559.69;4953485;28;20040;-78
2022/12/23 09:44:24;;;;;;;31.42;14.45;;;;;;;5.05;100.00;100574.63;4968485;28;20062;-79
2022/12/23 09:46:59;;;;;;;35.55;14.85;;;;;;;5.08;100.00;100559.03;4912116;28;20059;-79
2022/12/23 09:49:26;;;;;;;49.08;17.08;;;;;;;5.13;100.00;100574.78;4949614;28;20054;-79
2022/12/23 09:51:59;;;;;;;59.22;20.38;;;;;;;5.18;100.00;100574.84;4933772;28;20043;-79
2022/12/23 09:54:47;;;;;;;41.95;16.95;;;;;;;5.24;100.00;100572.38;4956866;28;20055;-79
2022/12/23 09:57:20;;;;;;;42.10;16.98;;;;;;;5.31;100.00;100562.94;4932056;28;20047;-80
2022/12/23 10:00:05;;;;;;;49.90;18.00;;;;;;;5.38;100.00;100559.59;4953073;28;20444;-79
2022/12/23 10:02:57;;;;;;;45.40;18.73;;;;;;;5.43;100.00;100535.31;4913712;28;20058;-79
2022/12/23 10:05:40;;;;;;;45.00;16.88;;;;;;;5.49;100.00;100534.56;4951114;28;20485;-79
2022/12/23 10:08:16;;;;;;;55.97;18.48;;;;;;;5.53;100.00;100530.25;4955735;28;20399;-80
2022/12/23 10:10:53;;;;;;;101.63;21.35;;;;;;;5.53;100.00;100525.91;4955924;28;20054;-79
2022/12/23 10:13:51;;;;;;;43.30;14.50;;;;;;;5.55;100.00;100512.88;4948648;28;20050;-79
2022/12/23 10:16:22;;;;;;;37.00;16.20;;;;;;;5.56;100.00;100512.03;4970006;28;20479;-79
2022/12/23 10:19:05;;;;;;;45.53;18.35;;;;;;;5.57;100.00;100522.50;4915401;28;20043;-79
2022/12/23 10:21:47;;;;;;;70.50;20.85;;;;;;;5.62;100.00;100527.81;4966930;28;20050;-79
2022/12/23 10:24:21;;;;;;;46.42;18.95;;;;;;;5.68;100.00;100532.28;4944993;28;20058;-79
2022/12/23 10:26:53;;;;;;;52.35;19.38;;;;;;;5.76;100.00;100535.91;4970517;28;20043;-79
2022/12/23 10:29:33;;;;;;;50.88;18.77;;;;;;;5.84;100.00;100535.19;4959302;28;20067;-78
2022/12/23 10:32:15;;;;;;;49.83;18.25;;;;;;;5.91;100.00;100533.56;4966119;28;20046;-79
2022/12/23 10:34:51;;;;;;;47.47;18.13;;;;;;;5.95;100.00;100542.34;4912664;28;20055;-79
2022/12/23 10:37:21;;;;;;;53.45;19.23;;;;;;;5.97;100.00;100524.97;4944141;28;20055;-79
2022/12/23 10:40:22;;;;;;;53.30;19.08;;;;;;;5.97;100.00;100531.09;4943155;28;20032;-79
2022/12/23 10:43:15;;;;;;;54.08;20.17;;;;;;;5.98;100.00;100534.59;4950863;28;20055;-79
2022/12/23 10:46:44;;;;;;;44.85;17.42;;;;;;;5.97;100.00;100536.31;4991484;28;20445;-79
2022/12/23 10:49:17;;;;;;;54.72;17.95;;;;;;;5.98;100.00;100531.97;4900225;29;20437;-79
2022/12/23 10:52:13;;;;;;;51.40;18.50;;;;;;;5.99;100.00;100528.47;4990541;28;20272;-79
2022/12/23 10:54:42;;;;;;;50.25;18.00;;;;;;;6.01;100.00;100513.69;4954516;28;20058;-79
2022/12/23 10:57:12;;;;;;;44.85;17.50;;;;;;;6.01;100.00;100505.84;4927316;28;20057;-80
2022/12/23 10:59:40;;;;;;;61.03;19.20;;;;;;;6.01;100.00;100505.84;4961181;28;20058;-80
2022/12/23 11:02:11;;;;;;;73.80;21.23;;;;;;;6.00;100.00;100507.59;4974445;28;20065;-80
2022/12/23 11:04:48;;;;;;;83.32;22.02;;;;;;;6.01;100.00;100498.00;4954638;28;20043;-80
2022/12/23 11:07:21;;;;;;;63.67;21.90;;;;;;;6.02;100.00;100494.53;4998754;28;20065;-80
2022/12/23 11:10:22;;;;;;;75.97;21.92;;;;;;;6.02;100.00;100489.31;4977816;28;20051;-80
2022/12/23 11:12:52;;;;;;;90.68;23.75;;;;;;;6.03;100.00;100491.94;4967925;28;20042;-80
2022/12/23 11:15:24;;;;;;;84.53;25.80;;;;;;;6.05;100.00;100491.97;4965458;28;20550;-79
2022/12/23 11:18:18;;;;;;;106.80;26.45;;;;;;;6.08;100.00;100499.00;4994845;28;20054;-80
2022/12/23 11:21:05;;;;;;;222.77;33.85;;;;;;;6.11;100.00;100497.31;4953357;28;20065;-81
2022/12/23 11:23:35;;;;;;;122.97;27.10;;;;;;;6.12;100.00;100496.44;4989821;28;20050;-79
2022/12/23 11:26:10;;;;;;;174.97;28.43;;;;;;;6.15;100.00;100482.53;4972207;28;20050;-79
2022/12/23 11:28:48;;;;;;;289.27;34.50;;;;;;;6.15;100.00;100479.91;4990098;28;20316;-80
2022/12/23 11:31:33;;;;;;;212.85;29.60;;;;;;;6.15;100.00;100477.31;4978474;28;20050;-80
2022/12/23 11:34:12;;;;;;;152.23;27.23;;;;;;;6.16;100.00;100479.94;4976444;28;20058;-80
2022/12/23 11:36:40;;;;;;;66.07;20.95;;;;;;;6.14;100.00;100475.53;4957447;28;20038;-80
2022/12/23 11:39:18;;;;;;;192.57;27.60;;;;;;;6.16;100.00;100468.59;4987434;28;20069;-79
2022/12/23 11:41:49;;;;;;;289.45;29.98;;;;;;;6.16;100.00;100464.25;4961742;28;20053;-80
2022/12/23 11:44:32;;;;;;;87.43;22.45;;;;;;;6.16;100.00;100456.41;4962426;28;20054;-79
2022/12/23 11:47:19;;;;;;;115.97;24.60;;;;;;;6.20;100.00;100449.44;4988019;28;20050;-78
2022/12/23 11:49:52;;;;;;;131.77;26.33;;;;;;;6.23;100.00;100444.28;4977089;28;20049;-79
2022/12/23 11:52:23;;;;;;;66.90;19.13;;;;;;;6.23;100.00;100441.66;4954510;28;20046;-79
2022/12/23 11:54:56;;;;;;;60.35;18.92;;;;;;;6.24;100.00;100440.81;4988316;28;20053;-79
2022/12/23 11:57:36;;;;;;;53.00;17.92;;;;;;;6.25;100.00;100442.56;4929882;28;20050;-80
2022/12/23 12:00:15;;;;;;;49.35;17.58;;;;;;;6.24;100.00;100436.44;4982019;28;20042;-81